sensor_id;sensor_type;location;lat;lon;timestamp;P1;durP1;ratioP1;P2;durP2;ratioP2
78875;SDS011;68253;52.506;5.486;2023-05-07T00:00:03;11.07;;;4.63;;
78875;SDS011;68253;52.506;5.486;2023-05-07T00:02:34;10.50;;;5.25;;
78875;SDS011;68253;52.506;5.486;2023-05-07T00:05:01;10.45;;;4.93;;
78875;SDS011;68253;52.506;5.486;2023-05-07T00:07:28;9.40;;;4.15;;
78875;SDS011;68253;52.506;5.486;2023-05-07T00:09:54;9.50;;;3.78;;
78875;SDS011;68253;52.506;5.486;2023-05-07T00:12:20;10.13;;;5.10;;
78875;SDS011;68253;52.506;5.486;2023-05-07T00:14:46;9.15;;;3.90;;
78875;SDS011;68253;52.506;5.486;2023-05-07T00:17:12;8.48;;;4.15;;
78875;SDS011;68253;52.506;5.486;2023-05-07T00:19:38;9.25;;;4.82;;
78875;SDS011;68253;52.506;5.486;2023-05-07T00:22:04;10.13;;;4.05;;
78875;SDS011;68253;52.506;5.486;2023-05-07T00:24:30;9.32;;;4.13;;
78875;SDS011;68253;52.506;5.486;2023-05-07T00:26:56;9.07;;;3.88;;
78875;SDS011;68253;52.506;5.486;2023-05-07T00:29:23;11.90;;;5.60;;
78875;SDS011;68253;52.506;5.486;2023-05-07T00:31:49;9.35;;;4.00;;
78875;SDS011;68253;52.506;5.486;2023-05-07T00:34:16;11.50;;;4.40;;
78875;SDS011;68253;52.506;5.486;2023-05-07T00:36:42;10.40;;;4.55;;
78875;SDS011;68253;52.506;5.486;2023-05-07T00:39:08;10.50;;;5.03;;
78875;SDS011;68253;52.506;5.486;2023-05-07T00:41:35;10.07;;;3.42;;
78875;SDS011;68253;52.506;5.486;2023-05-07T00:44:01;8.43;;;3.10;;
78875;SDS011;68253;52.506;5.486;2023-05-07T00:46:28;8.95;;;3.95;;
78875;SDS011;68253;52.506;5.486;2023-05-07T00:48:56;10.02;;;4.07;;
78875;SDS011;68253;52.506;5.486;2023-05-07T00:51:23;8.13;;;3.80;;
78875;SDS011;68253;52.506;5.486;2023-05-07T00:53:52;8.95;;;3.60;;
78875;SDS011;68253;52.506;5.486;2023-05-07T00:56:20;8.38;;;3.30;;
78875;SDS011;68253;52.506;5.486;2023-05-07T00:58:48;8.85;;;3.58;;
78875;SDS011;68253;52.506;5.486;2023-05-07T01:01:14;8.45;;;3.60;;
78875;SDS011;68253;52.506;5.486;2023-05-07T01:03:42;9.70;;;4.78;;
78875;SDS011;68253;52.506;5.486;2023-05-07T01:06:08;8.98;;;3.17;;
78875;SDS011;68253;52.506;5.486;2023-05-07T01:08:38;9.27;;;3.30;;
78875;SDS011;68253;52.506;5.486;2023-05-07T01:11:06;7.55;;;3.22;;
78875;SDS011;68253;52.506;5.486;2023-05-07T01:13:33;7.55;;;3.15;;
78875;SDS011;68253;52.506;5.486;2023-05-07T01:16:02;7.30;;;2.75;;
78875;SDS011;68253;52.506;5.486;2023-05-07T01:18:28;7.80;;;3.30;;
78875;SDS011;68253;52.506;5.486;2023-05-07T01:20:56;8.80;;;2.78;;
78875;SDS011;68253;52.506;5.486;2023-05-07T01:23:25;8.10;;;2.90;;
78875;SDS011;68253;52.506;5.486;2023-05-07T01:25:53;8.43;;;3.38;;
78875;SDS011;68253;52.506;5.486;2023-05-07T01:28:22;7.53;;;2.92;;
78875;SDS011;68253;52.506;5.486;2023-05-07T01:30:56;8.30;;;3.17;;
78875;SDS011;68253;52.506;5.486;2023-05-07T01:33:27;10.70;;;4.32;;
78875;SDS011;68253;52.506;5.486;2023-05-07T01:35:57;8.07;;;3.40;;
78875;SDS011;68253;52.506;5.486;2023-05-07T01:38:25;6.90;;;2.92;;
78875;SDS011;68253;52.506;5.486;2023-05-07T01:40:53;7.43;;;2.90;;
78875;SDS011;68253;52.506;5.486;2023-05-07T01:43:21;8.07;;;3.17;;
78875;SDS011;68253;52.506;5.486;2023-05-07T01:45:47;7.57;;;3.03;;
78875;SDS011;68253;52.506;5.486;2023-05-07T01:48:14;7.80;;;3.25;;
78875;SDS011;68253;52.506;5.486;2023-05-07T01:50:41;8.02;;;3.00;;
78875;SDS011;68253;52.506;5.486;2023-05-07T01:53:09;7.28;;;2.70;;
78875;SDS011;68253;52.506;5.486;2023-05-07T01:55:36;8.27;;;3.10;;
78875;SDS011;68253;52.506;5.486;2023-05-07T01:58:03;7.85;;;3.20;;
78875;SDS011;68253;52.506;5.486;2023-05-07T02:00:30;8.05;;;3.17;;
78875;SDS011;68253;52.506;5.486;2023-05-07T02:02:56;7.57;;;3.50;;
78875;SDS011;68253;52.506;5.486;2023-05-07T02:05:32;9.88;;;4.85;;
78875;SDS011;68253;52.506;5.486;2023-05-07T02:08:03;8.93;;;3.63;;
78875;SDS011;68253;52.506;5.486;2023-05-07T02:10:30;7.45;;;3.08;;
78875;SDS011;68253;52.506;5.486;2023-05-07T02:12:56;7.93;;;3.35;;
78875;SDS011;68253;52.506;5.486;2023-05-07T02:15:22;9.75;;;4.57;;
78875;SDS011;68253;52.506;5.486;2023-05-07T02:18:02;8.10;;;3.17;;
78875;SDS011;68253;52.506;5.486;2023-05-07T02:20:30;8.88;;;3.53;;
78875;SDS011;68253;52.506;5.486;2023-05-07T02:22:56;8.85;;;4.47;;
78875;SDS011;68253;52.506;5.486;2023-05-07T02:25:23;9.32;;;3.42;;
78875;SDS011;68253;52.506;5.486;2023-05-07T02:27:49;9.02;;;3.50;;
78875;SDS011;68253;52.506;5.486;2023-05-07T02:30:16;7.30;;;3.05;;
78875;SDS011;68253;52.506;5.486;2023-05-07T02:32:42;7.68;;;3.50;;
78875;SDS011;68253;52.506;5.486;2023-05-07T02:35:09;8.18;;;3.17;;
78875;SDS011;68253;52.506;5.486;2023-05-07T02:37:35;9.27;;;3.22;;
78875;SDS011;68253;52.506;5.486;2023-05-07T02:40:01;7.75;;;3.25;;
78875;SDS011;68253;52.506;5.486;2023-05-07T02:42:29;7.93;;;3.42;;
78875;SDS011;68253;52.506;5.486;2023-05-07T02:44:55;9.32;;;3.80;;
78875;SDS011;68253;52.506;5.486;2023-05-07T02:47:21;8.57;;;3.50;;
78875;SDS011;68253;52.506;5.486;2023-05-07T02:49:48;8.25;;;3.55;;
78875;SDS011;68253;52.506;5.486;2023-05-07T02:52:14;7.45;;;3.20;;
78875;SDS011;68253;52.506;5.486;2023-05-07T02:54:40;9.20;;;4.22;;
78875;SDS011;68253;52.506;5.486;2023-05-07T02:57:06;8.10;;;3.75;;
78875;SDS011;68253;52.506;5.486;2023-05-07T02:59:32;7.93;;;3.78;;
78875;SDS011;68253;52.506;5.486;2023-05-07T03:01:58;8.45;;;3.65;;
78875;SDS011;68253;52.506;5.486;2023-05-07T03:04:25;7.50;;;3.13;;
78875;SDS011;68253;52.506;5.486;2023-05-07T03:06:51;8.23;;;3.78;;
78875;SDS011;68253;52.506;5.486;2023-05-07T03:09:17;8.60;;;3.92;;
78875;SDS011;68253;52.506;5.486;2023-05-07T03:11:43;9.93;;;3.83;;
78875;SDS011;68253;52.506;5.486;2023-05-07T03:14:10;10.02;;;4.28;;
78875;SDS011;68253;52.506;5.486;2023-05-07T03:16:36;6.97;;;3.10;;
78875;SDS011;68253;52.506;5.486;2023-05-07T03:19:02;7.85;;;3.40;;
78875;SDS011;68253;52.506;5.486;2023-05-07T03:21:28;8.50;;;3.70;;
78875;SDS011;68253;52.506;5.486;2023-05-07T03:23:59;8.00;;;3.42;;
78875;SDS011;68253;52.506;5.486;2023-05-07T03:26:25;8.93;;;4.13;;
78875;SDS011;68253;52.506;5.486;2023-05-07T03:28:51;9.75;;;3.70;;
78875;SDS011;68253;52.506;5.486;2023-05-07T03:31:18;7.65;;;3.58;;
78875;SDS011;68253;52.506;5.486;2023-05-07T03:33:54;8.45;;;4.13;;
78875;SDS011;68253;52.506;5.486;2023-05-07T03:36:23;8.98;;;3.90;;
78875;SDS011;68253;52.506;5.486;2023-05-07T03:38:49;9.95;;;4.30;;
78875;SDS011;68253;52.506;5.486;2023-05-07T03:41:19;8.70;;;3.88;;
78875;SDS011;68253;52.506;5.486;2023-05-07T03:43:46;9.00;;;3.72;;
78875;SDS011;68253;52.506;5.486;2023-05-07T03:46:13;9.43;;;4.00;;
78875;SDS011;68253;52.506;5.486;2023-05-07T03:48:40;9.68;;;3.92;;
78875;SDS011;68253;52.506;5.486;2023-05-07T03:51:06;10.20;;;4.70;;
78875;SDS011;68253;52.506;5.486;2023-05-07T03:53:33;9.23;;;4.40;;
78875;SDS011;68253;52.506;5.486;2023-05-07T03:55:59;10.07;;;5.55;;
78875;SDS011;68253;52.506;5.486;2023-05-07T03:58:27;11.23;;;6.38;;
78875;SDS011;68253;52.506;5.486;2023-05-07T04:00:57;11.65;;;5.55;;
78875;SDS011;68253;52.506;5.486;2023-05-07T04:03:27;12.80;;;7.38;;
78875;SDS011;68253;52.506;5.486;2023-05-07T04:05:55;9.68;;;5.53;;
78875;SDS011;68253;52.506;5.486;2023-05-07T04:08:22;11.00;;;5.03;;
78875;SDS011;68253;52.506;5.486;2023-05-07T04:10:56;10.20;;;5.10;;
78875;SDS011;68253;52.506;5.486;2023-05-07T04:13:24;10.50;;;5.43;;
78875;SDS011;68253;52.506;5.486;2023-05-07T04:15:51;10.73;;;5.53;;
78875;SDS011;68253;52.506;5.486;2023-05-07T04:18:19;11.15;;;5.93;;
78875;SDS011;68253;52.506;5.486;2023-05-07T04:20:47;11.70;;;6.82;;
78875;SDS011;68253;52.506;5.486;2023-05-07T04:23:15;10.50;;;6.03;;
78875;SDS011;68253;52.506;5.486;2023-05-07T04:25:41;10.90;;;5.90;;
78875;SDS011;68253;52.506;5.486;2023-05-07T04:28:16;11.35;;;5.93;;
78875;SDS011;68253;52.506;5.486;2023-05-07T04:30:42;11.93;;;6.30;;
78875;SDS011;68253;52.506;5.486;2023-05-07T04:33:09;10.57;;;5.20;;
78875;SDS011;68253;52.506;5.486;2023-05-07T04:35:37;13.82;;;8.75;;
78875;SDS011;68253;52.506;5.486;2023-05-07T04:38:05;11.77;;;7.32;;
78875;SDS011;68253;52.506;5.486;2023-05-07T04:40:31;11.65;;;6.68;;
78875;SDS011;68253;52.506;5.486;2023-05-07T04:42:58;13.57;;;7.78;;
78875;SDS011;68253;52.506;5.486;2023-05-07T04:45:24;15.88;;;9.98;;
78875;SDS011;68253;52.506;5.486;2023-05-07T04:47:53;13.48;;;7.63;;
78875;SDS011;68253;52.506;5.486;2023-05-07T04:50:19;14.50;;;8.63;;
78875;SDS011;68253;52.506;5.486;2023-05-07T04:52:46;14.35;;;8.35;;
78875;SDS011;68253;52.506;5.486;2023-05-07T04:55:13;12.05;;;7.68;;
78875;SDS011;68253;52.506;5.486;2023-05-07T04:57:40;15.85;;;9.90;;
78875;SDS011;68253;52.506;5.486;2023-05-07T05:00:08;12.95;;;8.25;;
78875;SDS011;68253;52.506;5.486;2023-05-07T05:02:36;16.55;;;9.95;;
78875;SDS011;68253;52.506;5.486;2023-05-07T05:05:03;15.25;;;9.55;;
78875;SDS011;68253;52.506;5.486;2023-05-07T05:07:30;13.18;;;7.93;;
78875;SDS011;68253;52.506;5.486;2023-05-07T05:09:56;18.65;;;12.10;;
78875;SDS011;68253;52.506;5.486;2023-05-07T05:12:23;17.27;;;10.95;;
78875;SDS011;68253;52.506;5.486;2023-05-07T05:14:50;13.55;;;8.18;;
78875;SDS011;68253;52.506;5.486;2023-05-07T05:17:17;17.02;;;10.63;;
78875;SDS011;68253;52.506;5.486;2023-05-07T05:19:43;16.60;;;10.05;;
78875;SDS011;68253;52.506;5.486;2023-05-07T05:22:09;15.35;;;10.05;;
78875;SDS011;68253;52.506;5.486;2023-05-07T05:24:35;20.00;;;13.70;;
78875;SDS011;68253;52.506;5.486;2023-05-07T05:27:02;17.70;;;10.65;;
78875;SDS011;68253;52.506;5.486;2023-05-07T05:29:30;13.05;;;8.02;;
78875;SDS011;68253;52.506;5.486;2023-05-07T05:31:57;15.27;;;9.05;;
78875;SDS011;68253;52.506;5.486;2023-05-07T05:34:24;14.13;;;7.90;;
78875;SDS011;68253;52.506;5.486;2023-05-07T05:36:51;17.00;;;10.43;;
78875;SDS011;68253;52.506;5.486;2023-05-07T05:39:18;14.45;;;8.55;;
78875;SDS011;68253;52.506;5.486;2023-05-07T05:41:44;15.27;;;8.18;;
78875;SDS011;68253;52.506;5.486;2023-05-07T05:44:11;13.43;;;6.95;;
78875;SDS011;68253;52.506;5.486;2023-05-07T05:46:38;20.08;;;12.68;;
78875;SDS011;68253;52.506;5.486;2023-05-07T05:49:06;12.68;;;6.85;;
78875;SDS011;68253;52.506;5.486;2023-05-07T05:51:33;14.77;;;8.25;;
78875;SDS011;68253;52.506;5.486;2023-05-07T05:53:59;18.30;;;11.43;;
78875;SDS011;68253;52.506;5.486;2023-05-07T05:56:25;15.05;;;9.02;;
78875;SDS011;68253;52.506;5.486;2023-05-07T05:58:52;17.00;;;10.18;;
78875;SDS011;68253;52.506;5.486;2023-05-07T06:01:18;16.50;;;10.00;;
78875;SDS011;68253;52.506;5.486;2023-05-07T06:03:45;15.25;;;9.15;;
78875;SDS011;68253;52.506;5.486;2023-05-07T06:06:14;17.27;;;10.40;;
78875;SDS011;68253;52.506;5.486;2023-05-07T06:08:41;16.35;;;10.25;;
78875;SDS011;68253;52.506;5.486;2023-05-07T06:11:09;20.10;;;9.07;;
78875;SDS011;68253;52.506;5.486;2023-05-07T06:13:38;18.13;;;11.07;;
78875;SDS011;68253;52.506;5.486;2023-05-07T06:16:05;15.48;;;8.00;;
78875;SDS011;68253;52.506;5.486;2023-05-07T06:18:34;18.52;;;10.73;;
78875;SDS011;68253;52.506;5.486;2023-05-07T06:21:03;20.88;;;12.88;;
78875;SDS011;68253;52.506;5.486;2023-05-07T06:23:32;18.85;;;10.38;;
78875;SDS011;68253;52.506;5.486;2023-05-07T06:25:59;20.52;;;10.85;;
78875;SDS011;68253;52.506;5.486;2023-05-07T06:28:31;20.80;;;13.38;;
78875;SDS011;68253;52.506;5.486;2023-05-07T06:31:12;16.85;;;9.25;;
78875;SDS011;68253;52.506;5.486;2023-05-07T06:33:39;17.33;;;9.45;;
78875;SDS011;68253;52.506;5.486;2023-05-07T06:36:06;18.40;;;10.43;;
78875;SDS011;68253;52.506;5.486;2023-05-07T06:38:34;16.50;;;9.68;;
78875;SDS011;68253;52.506;5.486;2023-05-07T06:41:00;19.80;;;12.27;;
78875;SDS011;68253;52.506;5.486;2023-05-07T06:43:26;21.27;;;12.35;;
78875;SDS011;68253;52.506;5.486;2023-05-07T06:46:12;17.90;;;9.75;;
78875;SDS011;68253;52.506;5.486;2023-05-07T06:48:41;18.08;;;10.52;;
78875;SDS011;68253;52.506;5.486;2023-05-07T06:51:07;17.50;;;10.30;;
78875;SDS011;68253;52.506;5.486;2023-05-07T06:53:34;20.35;;;12.10;;
78875;SDS011;68253;52.506;5.486;2023-05-07T06:56:02;17.52;;;11.02;;
78875;SDS011;68253;52.506;5.486;2023-05-07T06:58:28;17.05;;;10.15;;
78875;SDS011;68253;52.506;5.486;2023-05-07T07:00:54;19.42;;;11.55;;
78875;SDS011;68253;52.506;5.486;2023-05-07T07:03:21;21.77;;;12.25;;
78875;SDS011;68253;52.506;5.486;2023-05-07T07:05:47;19.52;;;11.60;;
78875;SDS011;68253;52.506;5.486;2023-05-07T07:08:16;22.17;;;13.23;;
78875;SDS011;68253;52.506;5.486;2023-05-07T07:10:43;17.67;;;10.45;;
78875;SDS011;68253;52.506;5.486;2023-05-07T07:13:11;19.15;;;10.30;;
78875;SDS011;68253;52.506;5.486;2023-05-07T07:15:38;21.35;;;13.10;;
78875;SDS011;68253;52.506;5.486;2023-05-07T07:18:05;20.08;;;11.25;;
78875;SDS011;68253;52.506;5.486;2023-05-07T07:20:32;21.33;;;12.80;;
78875;SDS011;68253;52.506;5.486;2023-05-07T07:22:58;17.67;;;10.80;;
78875;SDS011;68253;52.506;5.486;2023-05-07T07:25:25;18.50;;;10.43;;
78875;SDS011;68253;52.506;5.486;2023-05-07T07:27:51;17.45;;;9.90;;
78875;SDS011;68253;52.506;5.486;2023-05-07T07:30:19;16.73;;;9.90;;
78875;SDS011;68253;52.506;5.486;2023-05-07T07:32:47;17.70;;;11.43;;
78875;SDS011;68253;52.506;5.486;2023-05-07T07:35:14;17.70;;;10.13;;
78875;SDS011;68253;52.506;5.486;2023-05-07T07:37:41;21.35;;;13.02;;
78875;SDS011;68253;52.506;5.486;2023-05-07T07:40:07;21.33;;;13.10;;
78875;SDS011;68253;52.506;5.486;2023-05-07T07:42:35;20.70;;;11.75;;
78875;SDS011;68253;52.506;5.486;2023-05-07T07:45:01;16.15;;;9.30;;
78875;SDS011;68253;52.506;5.486;2023-05-07T07:47:31;16.23;;;9.40;;
78875;SDS011;68253;52.506;5.486;2023-05-07T07:49:58;18.63;;;10.88;;
78875;SDS011;68253;52.506;5.486;2023-05-07T07:52:24;18.63;;;11.82;;
78875;SDS011;68253;52.506;5.486;2023-05-07T07:54:50;18.95;;;11.57;;
78875;SDS011;68253;52.506;5.486;2023-05-07T07:57:16;21.60;;;12.82;;
78875;SDS011;68253;52.506;5.486;2023-05-07T07:59:42;16.55;;;9.10;;
78875;SDS011;68253;52.506;5.486;2023-05-07T08:02:10;18.27;;;10.98;;
78875;SDS011;68253;52.506;5.486;2023-05-07T08:04:36;18.25;;;10.98;;
78875;SDS011;68253;52.506;5.486;2023-05-07T08:07:04;17.10;;;9.90;;
78875;SDS011;68253;52.506;5.486;2023-05-07T08:09:34;21.38;;;12.80;;
78875;SDS011;68253;52.506;5.486;2023-05-07T08:12:02;16.23;;;10.18;;
78875;SDS011;68253;52.506;5.486;2023-05-07T08:14:32;18.60;;;11.63;;
78875;SDS011;68253;52.506;5.486;2023-05-07T08:16:58;16.85;;;10.10;;
78875;SDS011;68253;52.506;5.486;2023-05-07T08:19:25;18.52;;;11.27;;
78875;SDS011;68253;52.506;5.486;2023-05-07T08:21:52;17.85;;;10.40;;
78875;SDS011;68253;52.506;5.486;2023-05-07T08:24:19;15.77;;;8.50;;
78875;SDS011;68253;52.506;5.486;2023-05-07T08:26:46;17.00;;;10.75;;
78875;SDS011;68253;52.506;5.486;2023-05-07T08:29:12;16.90;;;10.05;;
78875;SDS011;68253;52.506;5.486;2023-05-07T08:31:38;15.32;;;9.68;;
78875;SDS011;68253;52.506;5.486;2023-05-07T08:34:05;16.52;;;10.50;;
78875;SDS011;68253;52.506;5.486;2023-05-07T08:36:33;14.45;;;8.60;;
78875;SDS011;68253;52.506;5.486;2023-05-07T08:38:59;16.40;;;9.13;;
78875;SDS011;68253;52.506;5.486;2023-05-07T08:41:26;16.80;;;9.93;;
78875;SDS011;68253;52.506;5.486;2023-05-07T08:43:52;14.43;;;7.82;;
78875;SDS011;68253;52.506;5.486;2023-05-07T08:46:23;15.00;;;9.07;;
78875;SDS011;68253;52.506;5.486;2023-05-07T08:48:54;17.35;;;9.23;;
78875;SDS011;68253;52.506;5.486;2023-05-07T08:51:20;14.45;;;8.15;;
78875;SDS011;68253;52.506;5.486;2023-05-07T08:53:48;15.18;;;8.55;;
78875;SDS011;68253;52.506;5.486;2023-05-07T08:56:20;16.25;;;9.18;;
78875;SDS011;68253;52.506;5.486;2023-05-07T08:58:48;16.58;;;10.73;;
78875;SDS011;68253;52.506;5.486;2023-05-07T09:01:15;16.35;;;10.20;;
78875;SDS011;68253;52.506;5.486;2023-05-07T09:03:44;16.13;;;9.30;;
78875;SDS011;68253;52.506;5.486;2023-05-07T09:06:11;15.77;;;10.10;;
78875;SDS011;68253;52.506;5.486;2023-05-07T09:08:38;17.77;;;11.43;;
78875;SDS011;68253;52.506;5.486;2023-05-07T09:11:06;14.43;;;8.30;;
78875;SDS011;68253;52.506;5.486;2023-05-07T09:13:32;16.58;;;10.23;;
78875;SDS011;68253;52.506;5.486;2023-05-07T09:16:13;14.55;;;8.98;;
78875;SDS011;68253;52.506;5.486;2023-05-07T09:18:43;14.23;;;9.18;;
78875;SDS011;68253;52.506;5.486;2023-05-07T09:21:15;13.85;;;7.68;;
78875;SDS011;68253;52.506;5.486;2023-05-07T09:23:43;15.10;;;8.43;;
78875;SDS011;68253;52.506;5.486;2023-05-07T09:26:10;14.57;;;8.52;;
78875;SDS011;68253;52.506;5.486;2023-05-07T09:28:39;16.95;;;10.10;;
78875;SDS011;68253;52.506;5.486;2023-05-07T09:31:12;14.00;;;7.57;;
78875;SDS011;68253;52.506;5.486;2023-05-07T09:33:39;13.95;;;7.53;;
78875;SDS011;68253;52.506;5.486;2023-05-07T09:36:07;14.15;;;8.40;;
78875;SDS011;68253;52.506;5.486;2023-05-07T09:38:37;14.85;;;7.72;;
78875;SDS011;68253;52.506;5.486;2023-05-07T09:41:10;16.05;;;8.57;;
78875;SDS011;68253;52.506;5.486;2023-05-07T09:43:44;16.08;;;8.88;;
78875;SDS011;68253;52.506;5.486;2023-05-07T09:46:14;12.98;;;7.28;;
78875;SDS011;68253;52.506;5.486;2023-05-07T09:48:47;15.18;;;8.88;;
78875;SDS011;68253;52.506;5.486;2023-05-07T09:51:18;15.73;;;9.52;;
78875;SDS011;68253;52.506;5.486;2023-05-07T09:53:49;14.80;;;8.13;;
78875;SDS011;68253;52.506;5.486;2023-05-07T09:56:17;13.30;;;7.50;;
78875;SDS011;68253;52.506;5.486;2023-05-07T09:58:45;15.15;;;7.80;;
78875;SDS011;68253;52.506;5.486;2023-05-07T10:01:13;15.48;;;7.80;;
78875;SDS011;68253;52.506;5.486;2023-05-07T10:03:40;13.70;;;7.88;;
78875;SDS011;68253;52.506;5.486;2023-05-07T10:06:09;16.08;;;9.88;;
78875;SDS011;68253;52.506;5.486;2023-05-07T10:08:37;13.70;;;7.80;;
78875;SDS011;68253;52.506;5.486;2023-05-07T10:11:06;14.85;;;8.68;;
78875;SDS011;68253;52.506;5.486;2023-05-07T10:13:32;15.68;;;8.75;;
78875;SDS011;68253;52.506;5.486;2023-05-07T10:16:04;15.77;;;8.82;;
78875;SDS011;68253;52.506;5.486;2023-05-07T10:18:35;16.70;;;9.02;;
78875;SDS011;68253;52.506;5.486;2023-05-07T10:21:16;16.98;;;10.35;;
78875;SDS011;68253;52.506;5.486;2023-05-07T10:23:58;17.48;;;9.98;;
78875;SDS011;68253;52.506;5.486;2023-05-07T10:26:33;15.88;;;8.38;;
78875;SDS011;68253;52.506;5.486;2023-05-07T10:29:06;16.73;;;9.65;;
78875;SDS011;68253;52.506;5.486;2023-05-07T10:34:28;16.08;;;9.32;;
78875;SDS011;68253;52.506;5.486;2023-05-07T10:37:02;13.35;;;7.40;;
78875;SDS011;68253;52.506;5.486;2023-05-07T10:39:30;14.43;;;7.50;;
78875;SDS011;68253;52.506;5.486;2023-05-07T10:42:06;15.27;;;8.32;;
78875;SDS011;68253;52.506;5.486;2023-05-07T10:44:39;13.20;;;7.53;;
78875;SDS011;68253;52.506;5.486;2023-05-07T10:47:11;13.45;;;7.60;;
78875;SDS011;68253;52.506;5.486;2023-05-07T10:52:24;14.48;;;7.95;;
78875;SDS011;68253;52.506;5.486;2023-05-07T10:57:45;11.80;;;6.55;;
78875;SDS011;68253;52.506;5.486;2023-05-07T11:05:30;11.63;;;5.90;;
78875;SDS011;68253;52.506;5.486;2023-05-07T11:08:28;10.52;;;5.90;;
78875;SDS011;68253;52.506;5.486;2023-05-07T11:11:47;10.57;;;5.20;;
78875;SDS011;68253;52.506;5.486;2023-05-07T11:17:11;12.02;;;6.40;;
78875;SDS011;68253;52.506;5.486;2023-05-07T11:19:48;10.75;;;5.90;;
78875;SDS011;68253;52.506;5.486;2023-05-07T11:25:20;12.23;;;6.97;;
78875;SDS011;68253;52.506;5.486;2023-05-07T11:27:54;11.50;;;6.20;;
78875;SDS011;68253;52.506;5.486;2023-05-07T11:30:21;10.90;;;5.97;;
78875;SDS011;68253;52.506;5.486;2023-05-07T11:32:47;11.77;;;5.60;;
78875;SDS011;68253;52.506;5.486;2023-05-07T11:35:16;12.15;;;5.32;;
78875;SDS011;68253;52.506;5.486;2023-05-07T11:37:44;12.65;;;7.00;;
78875;SDS011;68253;52.506;5.486;2023-05-07T11:40:11;11.98;;;5.70;;
78875;SDS011;68253;52.506;5.486;2023-05-07T11:42:39;11.55;;;5.72;;
78875;SDS011;68253;52.506;5.486;2023-05-07T11:45:08;11.38;;;6.55;;
78875;SDS011;68253;52.506;5.486;2023-05-07T11:47:35;11.27;;;5.10;;
78875;SDS011;68253;52.506;5.486;2023-05-07T11:50:04;9.30;;;3.72;;
78875;SDS011;68253;52.506;5.486;2023-05-07T11:52:32;9.35;;;4.38;;
78875;SDS011;68253;52.506;5.486;2023-05-07T11:55:02;10.60;;;4.30;;
78875;SDS011;68253;52.506;5.486;2023-05-07T11:57:32;9.68;;;4.63;;
78875;SDS011;68253;52.506;5.486;2023-05-07T11:59:59;9.10;;;4.30;;
78875;SDS011;68253;52.506;5.486;2023-05-07T12:02:38;10.10;;;4.22;;
78875;SDS011;68253;52.506;5.486;2023-05-07T12:05:04;10.70;;;5.00;;
78875;SDS011;68253;52.506;5.486;2023-05-07T12:07:32;10.52;;;4.07;;
78875;SDS011;68253;52.506;5.486;2023-05-07T12:09:59;10.77;;;4.72;;
78875;SDS011;68253;52.506;5.486;2023-05-07T12:12:29;9.93;;;4.55;;
78875;SDS011;68253;52.506;5.486;2023-05-07T12:14:55;9.48;;;4.10;;
78875;SDS011;68253;52.506;5.486;2023-05-07T12:17:21;10.07;;;4.65;;
78875;SDS011;68253;52.506;5.486;2023-05-07T12:19:47;10.18;;;4.50;;
78875;SDS011;68253;52.506;5.486;2023-05-07T12:22:14;9.90;;;4.30;;
78875;SDS011;68253;52.506;5.486;2023-05-07T12:24:47;9.80;;;3.95;;
78875;SDS011;68253;52.506;5.486;2023-05-07T12:27:15;10.80;;;4.82;;
78875;SDS011;68253;52.506;5.486;2023-05-07T12:29:46;10.82;;;5.10;;
78875;SDS011;68253;52.506;5.486;2023-05-07T12:32:13;9.95;;;4.93;;
78875;SDS011;68253;52.506;5.486;2023-05-07T12:34:40;9.57;;;4.60;;
78875;SDS011;68253;52.506;5.486;2023-05-07T12:37:07;10.90;;;4.90;;
78875;SDS011;68253;52.506;5.486;2023-05-07T12:39:33;9.07;;;3.92;;
78875;SDS011;68253;52.506;5.486;2023-05-07T12:41:59;12.20;;;5.07;;
78875;SDS011;68253;52.506;5.486;2023-05-07T12:44:28;11.02;;;4.45;;
78875;SDS011;68253;52.506;5.486;2023-05-07T12:46:56;10.18;;;4.38;;
78875;SDS011;68253;52.506;5.486;2023-05-07T12:49:23;11.23;;;4.70;;
78875;SDS011;68253;52.506;5.486;2023-05-07T12:51:50;10.30;;;3.97;;
78875;SDS011;68253;52.506;5.486;2023-05-07T12:54:29;9.68;;;3.50;;
78875;SDS011;68253;52.506;5.486;2023-05-07T12:57:09;9.27;;;3.72;;
78875;SDS011;68253;52.506;5.486;2023-05-07T12:59:41;9.48;;;3.58;;
78875;SDS011;68253;52.506;5.486;2023-05-07T13:02:08;10.02;;;4.63;;
78875;SDS011;68253;52.506;5.486;2023-05-07T13:04:35;11.98;;;5.78;;
78875;SDS011;68253;52.506;5.486;2023-05-07T13:07:02;15.52;;;5.55;;
78875;SDS011;68253;52.506;5.486;2023-05-07T13:09:28;12.60;;;6.75;;
78875;SDS011;68253;52.506;5.486;2023-05-07T13:11:55;13.52;;;6.78;;
78875;SDS011;68253;52.506;5.486;2023-05-07T13:14:21;11.68;;;6.25;;
78875;SDS011;68253;52.506;5.486;2023-05-07T13:16:47;12.65;;;6.28;;
78875;SDS011;68253;52.506;5.486;2023-05-07T13:19:14;11.95;;;6.32;;
78875;SDS011;68253;52.506;5.486;2023-05-07T13:21:40;13.02;;;5.43;;
78875;SDS011;68253;52.506;5.486;2023-05-07T13:24:06;10.98;;;5.90;;
78875;SDS011;68253;52.506;5.486;2023-05-07T13:26:32;12.02;;;6.47;;
78875;SDS011;68253;52.506;5.486;2023-05-07T13:28:59;11.57;;;6.05;;
78875;SDS011;68253;52.506;5.486;2023-05-07T13:31:25;11.70;;;5.40;;
78875;SDS011;68253;52.506;5.486;2023-05-07T13:33:51;13.50;;;7.00;;
78875;SDS011;68253;52.506;5.486;2023-05-07T13:36:18;12.88;;;6.15;;
78875;SDS011;68253;52.506;5.486;2023-05-07T13:38:44;12.48;;;5.82;;
78875;SDS011;68253;52.506;5.486;2023-05-07T13:41:10;13.57;;;6.50;;
78875;SDS011;68253;52.506;5.486;2023-05-07T13:43:38;16.10;;;8.52;;
78875;SDS011;68253;52.506;5.486;2023-05-07T13:46:04;12.35;;;6.00;;
78875;SDS011;68253;52.506;5.486;2023-05-07T13:48:30;10.60;;;4.72;;
78875;SDS011;68253;52.506;5.486;2023-05-07T13:50:56;10.75;;;4.45;;
78875;SDS011;68253;52.506;5.486;2023-05-07T13:53:22;10.68;;;4.38;;
78875;SDS011;68253;52.506;5.486;2023-05-07T13:55:48;14.18;;;7.03;;
78875;SDS011;68253;52.506;5.486;2023-05-07T13:58:14;14.35;;;7.32;;
78875;SDS011;68253;52.506;5.486;2023-05-07T14:00:41;12.45;;;6.40;;
78875;SDS011;68253;52.506;5.486;2023-05-07T14:03:07;16.63;;;8.88;;
78875;SDS011;68253;52.506;5.486;2023-05-07T14:05:33;14.27;;;7.43;;
78875;SDS011;68253;52.506;5.486;2023-05-07T14:07:59;13.90;;;7.35;;
78875;SDS011;68253;52.506;5.486;2023-05-07T14:10:25;14.07;;;6.88;;
78875;SDS011;68253;52.506;5.486;2023-05-07T14:12:51;12.43;;;6.45;;
78875;SDS011;68253;52.506;5.486;2023-05-07T14:15:18;13.43;;;5.85;;
78875;SDS011;68253;52.506;5.486;2023-05-07T14:17:44;12.63;;;5.97;;
78875;SDS011;68253;52.506;5.486;2023-05-07T14:20:11;14.38;;;7.82;;
78875;SDS011;68253;52.506;5.486;2023-05-07T14:22:37;11.75;;;6.13;;
78875;SDS011;68253;52.506;5.486;2023-05-07T14:25:04;13.02;;;6.53;;
78875;SDS011;68253;52.506;5.486;2023-05-07T14:27:30;13.85;;;6.60;;
78875;SDS011;68253;52.506;5.486;2023-05-07T14:29:56;13.18;;;6.78;;
78875;SDS011;68253;52.506;5.486;2023-05-07T14:32:22;13.68;;;6.88;;
78875;SDS011;68253;52.506;5.486;2023-05-07T14:34:48;13.93;;;7.70;;
78875;SDS011;68253;52.506;5.486;2023-05-07T14:37:15;13.25;;;7.22;;
78875;SDS011;68253;52.506;5.486;2023-05-07T14:39:42;12.25;;;5.95;;
78875;SDS011;68253;52.506;5.486;2023-05-07T14:42:08;11.88;;;6.07;;
78875;SDS011;68253;52.506;5.486;2023-05-07T14:44:34;13.55;;;7.30;;
78875;SDS011;68253;52.506;5.486;2023-05-07T14:47:01;14.73;;;7.85;;
78875;SDS011;68253;52.506;5.486;2023-05-07T14:49:27;18.77;;;10.00;;
78875;SDS011;68253;52.506;5.486;2023-05-07T14:51:53;13.77;;;7.53;;
78875;SDS011;68253;52.506;5.486;2023-05-07T14:54:19;14.00;;;7.22;;
78875;SDS011;68253;52.506;5.486;2023-05-07T14:56:45;14.63;;;7.15;;
78875;SDS011;68253;52.506;5.486;2023-05-07T14:59:12;13.27;;;7.05;;